Time;durP1;ratioP1;P1;durP2;ratioP2;P2;SDS_P1;SDS_P2;PMS_P1;PMS_P2;Temp;Humidity;BMP_temperature;BMP_pressure;BME280_temperature;BME280_humidity;BME280_pressure;Samples;Min_cycle;Max_cycle;Signal;HPM_P1;HPM_P2
2021/09/08 00:00:10;;;;;;;8.00;6.63;;;14.00;99.90;;;;;;5063829;28;20040;-55
2021/09/08 00:02:36;;;;;;;8.05;6.65;;;13.90;99.90;;;;;;5049080;28;20036;-54
2021/09/08 00:05:02;;;;;;;10.25;7.60;;;13.90;99.90;;;;;;5063486;28;20021;-53
2021/09/08 00:07:27;;;;;;;6.50;5.85;;;13.90;99.90;;;;;;5065196;28;20094;-52
2021/09/08 00:09:53;;;;;;;8.80;6.75;;;13.90;99.90;;;;;;5065017;28;20076;-54
2021/09/08 00:12:18;;;;;;;9.68;7.28;;;13.80;99.90;;;;;;5064754;28;20025;-51
2021/09/08 00:14:44;;;;;;;7.63;6.82;;;13.80;99.90;;;;;;5064991;28;20025;-51
2021/09/08 00:17:10;;;;;;;8.10;6.55;;;13.80;99.90;;;;;;5063710;28;20028;-53
2021/09/08 00:19:36;;;;;;;7.78;6.47;;;13.80;99.90;;;;;;5064803;28;20032;-51
2021/09/08 00:22:01;;;;;;;6.53;5.85;;;13.70;99.90;;;;;;5046013;28;20021;-54
2021/09/08 00:24:27;;;;;;;7.15;6.35;;;13.70;99.90;;;;;;5064700;28;20033;-55
2021/09/08 00:26:52;;;;;;;9.20;6.35;;;13.70;99.90;;;;;;5070312;28;20154;-56
2021/09/08 00:29:18;;;;;;;7.38;6.47;;;13.70;99.90;;;;;;5046593;28;20051;-56
2021/09/08 00:31:44;;;;;;;6.80;6.00;;;13.80;99.90;;;;;;5064468;28;20398;-54
2021/09/08 00:34:09;;;;;;;7.50;6.57;;;13.80;99.90;;;;;;5061620;28;20033;-53
2021/09/08 00:36:35;;;;;;;7.53;6.50;;;13.80;99.90;;;;;;5041781;28;20024;-52
2021/09/08 00:39:01;;;;;;;7.07;6.38;;;13.70;99.90;;;;;;5067809;28;20428;-54
2021/09/08 00:41:41;;;;;;;8.13;6.82;;;13.70;99.90;;;;;;5069976;28;20035;-55
2021/09/08 00:44:12;;;;;;;8.20;6.80;;;13.70;99.90;;;;;;5058755;28;20107;-54
2021/09/08 00:46:39;;;;;;;12.23;6.60;;;13.60;99.90;;;;;;5065788;28;20107;-51
2021/09/08 00:49:05;;;;;;;7.07;6.35;;;13.60;99.90;;;;;;5063002;28;20081;-50
2021/09/08 00:51:31;;;;;;;7.60;6.35;;;13.60;99.90;;;;;;5065600;28;20107;-53
2021/09/08 00:53:59;;;;;;;7.63;6.05;;;13.50;99.90;;;;;;5063919;28;20052;-54
2021/09/08 00:56:26;;;;;;;7.35;6.10;;;13.50;99.90;;;;;;5060133;28;20043;-51
2021/09/08 00:58:52;;;;;;;7.80;6.93;;;13.50;99.90;;;;;;5065136;28;20470;-50
2021/09/08 01:01:19;;;;;;;8.52;5.85;;;13.50;99.90;;;;;;5058419;28;20052;-51
2021/09/08 01:03:45;;;;;;;8.05;6.35;;;13.50;99.90;;;;;;5064562;28;20036;-49
2021/09/08 01:06:11;;;;;;;8.43;6.25;;;13.50;99.90;;;;;;5061732;28;20532;-50
2021/09/08 01:08:37;;;;;;;8.20;6.55;;;13.50;99.90;;;;;;5059964;28;20028;-49
2021/09/08 01:11:05;;;;;;;9.32;6.47;;;13.50;99.90;;;;;;5062903;28;20024;-49
2021/09/08 01:13:30;;;;;;;8.43;6.63;;;13.50;99.90;;;;;;5059778;28;20066;-49
2021/09/08 01:16:01;;;;;;;7.75;6.40;;;13.50;99.90;;;;;;5066512;28;20111;-49
2021/09/08 01:18:28;;;;;;;8.40;6.40;;;13.50;99.90;;;;;;5059961;28;20368;-50
2021/09/08 01:20:53;;;;;;;7.85;6.78;;;13.50;99.90;;;;;;5067045;28;20024;-48
2021/09/08 01:23:19;;;;;;;9.20;6.32;;;13.50;99.90;;;;;;5059741;28;20124;-49
2021/09/08 01:25:45;;;;;;;9.20;7.53;;;13.50;99.90;;;;;;5065520;28;20386;-49
2021/09/08 01:28:11;;;;;;;9.48;6.55;;;13.50;99.90;;;;;;5060960;28;20525;-54
2021/09/08 01:30:37;;;;;;;8.65;6.95;;;13.50;99.90;;;;;;5041845;28;20489;-54
2021/09/08 01:33:06;;;;;;;7.65;6.43;;;13.50;99.90;;;;;;5066202;28;20109;-51
2021/09/08 01:35:32;;;;;;;9.70;6.45;;;13.50;99.90;;;;;;5057775;28;20048;-53
2021/09/08 01:37:57;;;;;;;8.15;6.30;;;13.40;99.90;;;;;;5048139;28;20067;-49
2021/09/08 01:40:23;;;;;;;6.72;5.95;;;13.40;99.90;;;;;;5067848;28;20548;-53
2021/09/08 01:42:48;;;;;;;6.97;6.28;;;13.40;99.90;;;;;;5067659;28;20036;-51
2021/09/08 01:45:16;;;;;;;7.18;6.13;;;13.40;99.90;;;;;;5068175;28;20067;-52
2021/09/08 01:47:41;;;;;;;6.82;5.80;;;13.40;99.90;;;;;;5049613;28;20029;-52
2021/09/08 01:50:08;;;;;;;7.70;5.70;;;13.40;99.90;;;;;;5064361;28;20541;-51
2021/09/08 01:52:35;;;;;;;7.03;6.32;;;13.30;99.90;;;;;;5049396;28;20108;-50
2021/09/08 01:55:01;;;;;;;6.90;5.80;;;13.30;99.90;;;;;;5052404;28;20016;-52
2021/09/08 01:57:26;;;;;;;7.35;6.30;;;13.20;99.90;;;;;;5058078;28;20112;-53
2021/09/08 01:59:52;;;;;;;6.93;5.60;;;13.20;99.90;;;;;;5053911;28;20090;-50
2021/09/08 02:02:17;;;;;;;7.85;5.85;;;13.20;99.90;;;;;;5059158;28;20051;-49
2021/09/08 02:04:43;;;;;;;7.93;5.75;;;13.20;99.90;;;;;;5063280;28;20029;-54
2021/09/08 02:07:09;;;;;;;7.30;6.00;;;13.20;99.90;;;;;;5069265;28;20028;-52
2021/09/08 02:09:34;;;;;;;5.82;5.22;;;13.20;99.90;;;;;;5052138;28;20127;-50
2021/09/08 02:12:00;;;;;;;8.57;5.78;;;13.10;99.90;;;;;;5061344;28;20025;-52
2021/09/08 02:14:25;;;;;;;5.72;5.00;;;13.10;99.90;;;;;;5052316;28;20312;-56
2021/09/08 02:16:51;;;;;;;6.15;5.55;;;13.10;99.90;;;;;;5066836;28;20025;-51
2021/09/08 02:19:16;;;;;;;5.93;5.38;;;13.10;99.90;;;;;;5063787;28;20029;-50
2021/09/08 02:21:42;;;;;;;5.72;5.13;;;13.10;99.90;;;;;;5069415;28;20028;-51
2021/09/08 02:24:08;;;;;;;7.75;5.63;;;13.10;99.90;;;;;;5064611;28;20035;-53
2021/09/08 02:26:33;;;;;;;8.02;5.88;;;13.00;99.90;;;;;;5067881;28;20032;-51
2021/09/08 02:28:59;;;;;;;6.43;5.30;;;13.00;99.90;;;;;;5158510;22;20061;-50
2021/09/08 02:31:25;;;;;;;7.78;6.20;;;13.00;99.90;;;;;;5041892;28;20025;-49
2021/09/08 02:33:50;;;;;;;7.55;6.07;;;13.00;99.90;;;;;;5040646;28;20100;-51
2021/09/08 02:36:17;;;;;;;7.32;6.28;;;13.00;99.90;;;;;;5041640;28;20047;-50
2021/09/08 02:38:42;;;;;;;7.82;6.20;;;13.00;99.90;;;;;;5042418;28;20025;-50
2021/09/08 02:41:08;;;;;;;7.20;6.50;;;13.00;99.90;;;;;;5040878;28;20099;-49
2021/09/08 02:43:35;;;;;;;9.02;6.45;;;13.00;99.90;;;;;;5042447;28;20029;-51
2021/09/08 02:46:03;;;;;;;6.63;5.53;;;13.00;99.90;;;;;;5041070;28;20094;-52
2021/09/08 02:48:30;;;;;;;7.45;5.95;;;13.00;99.90;;;;;;5041863;28;20025;-53
2021/09/08 02:50:56;;;;;;;8.48;6.28;;;13.00;99.90;;;;;;5040442;28;20083;-50
2021/09/08 02:53:22;;;;;;;6.78;6.00;;;13.00;99.90;;;;;;5042095;28;20029;-52
2021/09/08 02:55:47;;;;;;;8.02;6.18;;;13.00;99.90;;;;;;5041958;28;20025;-49
2021/09/08 02:58:12;;;;;;;8.98;6.50;;;13.00;99.90;;;;;;5040953;28;20021;-50
2021/09/08 03:00:38;;;;;;;6.97;5.72;;;12.90;99.90;;;;;;5024481;28;20545;-51
2021/09/08 03:03:04;;;;;;;8.40;6.53;;;13.00;99.90;;;;;;5039543;28;20029;-50
2021/09/08 03:05:29;;;;;;;8.82;6.28;;;13.00;99.90;;;;;;5042026;28;20510;-52
2021/09/08 03:07:55;;;;;;;7.22;5.88;;;13.00;99.90;;;;;;5039891;28;20025;-52
2021/09/08 03:10:20;;;;;;;9.93;6.50;;;13.00;99.90;;;;;;5041547;28;20033;-50
2021/09/08 03:12:46;;;;;;;7.97;6.30;;;13.00;99.90;;;;;;5041935;28;20407;-51
2021/09/08 03:15:12;;;;;;;6.93;6.15;;;13.00;99.90;;;;;;5040151;28;20021;-50
2021/09/08 03:17:38;;;;;;;7.57;5.93;;;12.90;99.90;;;;;;5041639;28;20101;-49
2021/09/08 03:20:04;;;;;;;7.25;6.15;;;13.00;99.90;;;;;;5021071;28;20025;-49
2021/09/08 03:22:30;;;;;;;6.50;5.75;;;12.90;99.90;;;;;;5041928;28;20025;-53
2021/09/08 03:24:55;;;;;;;7.07;5.80;;;12.90;99.90;;;;;;5040729;28;20056;-49
2021/09/08 03:27:21;;;;;;;5.72;5.10;;;13.00;99.90;;;;;;5041865;28;20029;-50
2021/09/08 03:29:47;;;;;;;8.23;6.70;;;12.90;99.90;;;;;;5041485;28;20041;-51
2021/09/08 03:32:12;;;;;;;8.15;5.95;;;12.90;99.90;;;;;;5039704;28;20026;-50
2021/09/08 03:34:38;;;;;;;6.80;5.80;;;12.90;99.90;;;;;;5023819;28;20025;-49
2021/09/08 03:37:03;;;;;;;7.22;5.47;;;12.90;99.90;;;;;;5040140;28;20029;-49
2021/09/08 03:39:29;;;;;;;6.63;5.85;;;12.90;99.90;;;;;;5041542;28;20032;-50
2021/09/08 03:41:54;;;;;;;5.88;5.35;;;12.90;99.90;;;;;;5041109;28;20498;-50
2021/09/08 03:44:20;;;;;;;6.70;5.78;;;12.90;99.90;;;;;;5030368;28;20566;-50
2021/09/08 03:46:45;;;;;;;9.55;6.13;;;12.80;99.90;;;;;;5041327;28;20411;-50
2021/09/08 03:49:11;;;;;;;7.05;6.00;;;12.80;99.90;;;;;;5021006;28;20506;-50
2021/09/08 03:51:37;;;;;;;6.85;5.80;;;12.80;99.90;;;;;;5023771;28;20021;-50
2021/09/08 03:54:02;;;;;;;7.10;5.60;;;12.80;99.90;;;;;;5022308;28;20017;-50
2021/09/08 03:56:28;;;;;;;8.50;5.90;;;12.80;99.90;;;;;;5041262;28;20032;-49
2021/09/08 03:58:54;;;;;;;7.05;6.22;;;12.80;99.90;;;;;;5040900;28;20025;-50
2021/09/08 04:01:19;;;;;;;7.85;6.30;;;12.70;99.90;;;;;;5023832;28;20032;-52
2021/09/08 04:03:48;;;;;;;7.25;6.10;;;12.70;99.90;;;;;;5041699;28;20379;-51
2021/09/08 04:06:15;;;;;;;8.00;6.00;;;12.70;99.90;;;;;;5038790;28;20025;-49
2021/09/08 04:08:40;;;;;;;9.27;6.47;;;12.70;99.90;;;;;;5041131;28;20107;-51
2021/09/08 04:11:06;;;;;;;7.60;6.57;;;12.70;99.90;;;;;;5022223;28;20494;-51
2021/09/08 04:13:32;;;;;;;6.53;5.88;;;12.70;99.90;;;;;;5041012;28;20028;-51
2021/09/08 04:15:58;;;;;;;8.27;5.88;;;12.70;99.90;;;;;;5040575;28;20031;-53
2021/09/08 04:18:23;;;;;;;7.32;6.20;;;12.70;99.90;;;;;;5041293;28;20079;-49
2021/09/08 04:20:49;;;;;;;8.43;6.25;;;12.60;99.90;;;;;;5041136;28;20397;-49
2021/09/08 04:23:14;;;;;;;6.88;6.10;;;12.60;99.90;;;;;;5038429;28;20097;-49
2021/09/08 04:25:40;;;;;;;8.02;6.10;;;12.60;99.90;;;;;;5043039;28;20041;-50
2021/09/08 04:28:06;;;;;;;7.25;5.93;;;12.60;99.90;;;;;;5039198;28;20033;-50
2021/09/08 04:30:32;;;;;;;7.47;6.25;;;12.60;99.90;;;;;;5038445;28;20025;-49
2021/09/08 04:32:57;;;;;;;6.35;5.47;;;12.60;99.90;;;;;;5047709;28;20025;-50
2021/09/08 04:35:23;;;;;;;6.80;5.90;;;12.50;99.90;;;;;;5040888;28;20075;-49
2021/09/08 04:37:49;;;;;;;5.95;5.35;;;12.50;99.90;;;;;;5047303;28;20060;-50
2021/09/08 04:40:14;;;;;;;7.22;5.88;;;12.40;99.90;;;;;;5023790;28;20032;-49
2021/09/08 04:42:40;;;;;;;7.72;5.93;;;12.40;99.90;;;;;;5046844;28;20036;-51
2021/09/08 04:45:06;;;;;;;9.25;6.35;;;12.40;99.90;;;;;;5042835;28;20091;-49
2021/09/08 04:47:32;;;;;;;7.40;6.43;;;12.40;99.90;;;;;;5040572;28;20064;-50
2021/09/08 04:49:57;;;;;;;6.45;5.57;;;12.40;99.90;;;;;;5047242;28;20071;-52
2021/09/08 04:52:23;;;;;;;6.85;6.18;;;12.50;99.90;;;;;;5040886;28;20502;-49
2021/09/08 04:54:48;;;;;;;7.95;6.05;;;12.40;99.90;;;;;;5046739;28;20025;-53
2021/09/08 04:57:14;;;;;;;8.32;7.28;;;12.40;99.90;;;;;;5041400;28;20024;-50
2021/09/08 04:59:39;;;;;;;7.75;6.50;;;12.50;99.90;;;;;;5046962;28;20037;-50
2021/09/08 05:02:05;;;;;;;7.47;6.75;;;12.50;99.90;;;;;;5042917;28;20395;-53
2021/09/08 05:04:30;;;;;;;8.73;7.32;;;12.50;99.90;;;;;;5022655;28;20054;-50
2021/09/08 05:06:56;;;;;;;7.78;6.65;;;12.50;99.90;;;;;;5046599;28;20399;-49
2021/09/08 05:09:22;;;;;;;8.90;6.47;;;12.50;99.90;;;;;;5039764;28;20399;-49
2021/09/08 05:11:47;;;;;;;9.70;7.50;;;12.50;99.90;;;;;;5046532;28;20655;-50
2021/09/08 05:14:13;;;;;;;9.07;7.47;;;12.60;99.90;;;;;;5041132;28;20375;-52
2021/09/08 05:16:38;;;;;;;7.90;7.05;;;12.60;99.90;;;;;;5046040;28;20103;-52
2021/09/08 05:19:04;;;;;;;7.28;6.25;;;12.60;99.90;;;;;;5042657;28;20441;-51
2021/09/08 05:21:30;;;;;;;9.35;6.40;;;12.60;99.90;;;;;;5040326;28;20430;-50
2021/09/08 05:23:55;;;;;;;8.73;7.20;;;12.60;99.90;;;;;;5040278;28;20534;-51
2021/09/08 05:26:21;;;;;;;8.45;7.15;;;12.60;99.90;;;;;;5047997;28;20399;-51
2021/09/08 05:28:47;;;;;;;10.40;6.97;;;12.60;99.90;;;;;;5040310;28;20029;-49
2021/09/08 05:31:13;;;;;;;10.02;7.00;;;12.70;99.90;;;;;;5025281;28;20030;-50
2021/09/08 05:33:38;;;;;;;9.23;7.15;;;12.70;99.90;;;;;;5043781;28;20025;-51
2021/09/08 05:36:04;;;;;;;9.88;8.00;;;12.70;99.90;;;;;;5041121;28;20089;-49
2021/09/08 05:38:29;;;;;;;10.52;7.50;;;12.70;99.90;;;;;;5045455;28;20041;-52
2021/09/08 05:40:58;;;;;;;9.90;7.90;;;12.80;99.90;;;;;;5040105;28;20022;-50
2021/09/08 05:43:23;;;;;;;14.70;8.50;;;12.80;99.90;;;;;;5046114;28;20495;-51
2021/09/08 05:45:49;;;;;;;11.32;9.15;;;12.80;99.90;;;;;;5039606;28;20076;-51
2021/09/08 05:48:14;;;;;;;15.48;9.82;;;12.90;99.90;;;;;;5042349;28;20033;-54
2021/09/08 05:50:40;;;;;;;9.60;8.20;;;12.90;99.90;;;;;;5043136;28;20038;-51
2021/09/08 05:53:06;;;;;;;11.55;8.48;;;12.90;99.90;;;;;;5041309;28;20052;-53
2021/09/08 05:55:32;;;;;;;12.55;9.43;;;12.90;99.90;;;;;;5044760;28;20526;-51
2021/09/08 05:57:58;;;;;;;10.93;9.07;;;13.00;99.90;;;;;;5040240;28;20022;-51
2021/09/08 06:00:24;;;;;;;11.73;9.05;;;13.00;99.90;;;;;;5047346;28;20128;-53
2021/09/08 06:02:49;;;;;;;12.88;9.68;;;13.00;99.90;;;;;;5039683;28;20026;-53
2021/09/08 06:05:15;;;;;;;13.73;9.77;;;13.10;99.90;;;;;;5042030;28;20033;-51
2021/09/08 06:07:40;;;;;;;11.77;9.77;;;13.10;99.90;;;;;;5042958;28;20029;-48
2021/09/08 06:10:07;;;;;;;11.73;9.00;;;13.20;99.90;;;;;;5022977;28;20551;-51
2021/09/08 06:12:32;;;;;;;11.10;9.32;;;13.20;99.90;;;;;;5026755;28;20060;-51
2021/09/08 06:14:58;;;;;;;12.18;9.80;;;13.30;99.90;;;;;;5039184;28;20045;-51
2021/09/08 06:17:24;;;;;;;13.20;9.52;;;13.30;99.90;;;;;;5046749;28;20030;-51
2021/09/08 06:19:50;;;;;;;14.70;10.40;;;13.40;99.90;;;;;;5038910;28;20036;-50
2021/09/08 06:22:15;;;;;;;13.27;10.70;;;13.40;99.90;;;;;;5042300;28;20025;-50
2021/09/08 06:24:41;;;;;;;13.00;10.43;;;13.50;99.90;;;;;;5042487;28;20017;-53
2021/09/08 06:27:06;;;;;;;13.82;10.50;;;13.50;99.90;;;;;;5042019;28;20025;-51
2021/09/08 06:29:32;;;;;;;12.02;10.45;;;13.60;99.90;;;;;;5042496;28;20040;-50
2021/09/08 06:31:58;;;;;;;13.20;10.27;;;13.70;99.90;;;;;;5040331;28;20406;-51
2021/09/08 06:34:23;;;;;;;11.10;10.02;;;13.80;99.90;;;;;;5042476;28;20450;-50
2021/09/08 06:36:53;;;;;;;15.00;11.15;;;13.80;99.90;;;;;;5041726;28;20029;-50
2021/09/08 06:39:22;;;;;;;13.35;10.38;;;13.90;99.90;;;;;;5041985;28;20025;-50
2021/09/08 06:41:48;;;;;;;12.23;10.55;;;14.00;99.90;;;;;;5042421;28;20068;-53
2021/09/08 06:44:15;;;;;;;14.43;10.35;;;14.10;99.90;;;;;;5041659;28;20112;-49
2021/09/08 06:46:40;;;;;;;13.63;11.25;;;14.10;99.90;;;;;;5041890;28;20036;-50
2021/09/08 06:49:06;;;;;;;14.48;11.40;;;14.20;99.90;;;;;;5039794;28;20029;-52
2021/09/08 06:51:31;;;;;;;11.63;10.40;;;14.30;99.90;;;;;;5042158;28;20475;-49
2021/09/08 06:53:57;;;;;;;13.85;11.32;;;14.40;99.90;;;;;;5040583;28;20451;-52
2021/09/08 06:56:22;;;;;;;12.00;10.18;;;14.40;99.90;;;;;;5041849;28;20108;-53
2021/09/08 06:58:48;;;;;;;13.32;9.95;;;14.50;99.90;;;;;;5042236;28;20106;-51
2021/09/08 07:01:13;;;;;;;14.27;11.05;;;14.60;99.90;;;;;;5041716;28;20471;-51
2021/09/08 07:03:39;;;;;;;14.00;10.85;;;14.70;99.90;;;;;;5042545;28;20437;-52
2021/09/08 07:06:05;;;;;;;14.48;10.77;;;14.80;99.90;;;;;;5039658;28;20484;-51
2021/09/08 07:08:30;;;;;;;14.15;10.98;;;14.90;99.90;;;;;;5024216;28;20115;-51
2021/09/08 07:10:56;;;;;;;13.50;11.05;;;15.10;99.90;;;;;;5040383;28;20063;-50
2021/09/08 07:13:21;;;;;;;12.82;10.23;;;15.20;99.90;;;;;;5041712;28;20044;-50
2021/09/08 07:15:47;;;;;;;13.27;10.50;;;15.40;99.90;;;;;;5041501;28;20479;-51
2021/09/08 07:18:13;;;;;;;16.15;11.23;;;15.50;99.90;;;;;;5023349;28;20032;-51
2021/09/08 07:20:40;;;;;;;12.35;10.40;;;15.70;99.90;;;;;;5041767;28;20083;-50
2021/09/08 07:23:06;;;;;;;10.32;9.32;;;16.00;99.90;;;;;;5040384;28;20033;-51
2021/09/08 07:25:32;;;;;;;12.48;10.70;;;16.20;99.90;;;;;;5042622;28;20029;-52
2021/09/08 07:27:58;;;;;;;14.60;10.88;;;16.40;99.90;;;;;;5041231;28;20037;-51
2021/09/08 07:30:24;;;;;;;12.23;10.30;;;16.70;99.90;;;;;;5038255;28;20029;-51
2021/09/08 07:32:49;;;;;;;11.07;9.45;;;16.90;99.90;;;;;;5043492;28;20441;-52
2021/09/08 07:35:15;;;;;;;12.18;9.85;;;17.20;99.90;;;;;;5038461;28;20033;-52
2021/09/08 07:37:40;;;;;;;11.05;9.52;;;17.50;99.90;;;;;;5043186;28;20025;-53
2021/09/08 07:40:09;;;;;;;11.48;9.00;;;17.70;99.90;;;;;;5039885;28;20033;-52
2021/09/08 07:42:34;;;;;;;10.80;8.82;;;18.00;99.90;;;;;;5042877;28;20372;-52
2021/09/08 07:45:00;;;;;;;11.73;9.57;;;18.20;99.90;;;;;;5040598;28;20070;-54
2021/09/08 07:47:25;;;;;;;11.23;8.85;;;18.50;99.90;;;;;;5037622;28;20069;-53
2021/09/08 07:49:51;;;;;;;10.40;9.00;;;18.70;99.90;;;;;;5043849;28;20024;-51
2021/09/08 07:52:16;;;;;;;12.35;9.02;;;18.90;99.90;;;;;;5038254;28;20467;-51
2021/09/08 07:54:42;;;;;;;10.05;9.02;;;19.10;99.90;;;;;;5042916;28;20101;-51
2021/09/08 07:57:07;;;;;;;10.40;8.98;;;19.40;99.90;;;;;;5039726;28;20033;-52
2021/09/08 07:59:33;;;;;;;11.02;9.18;;;19.50;99.90;;;;;;5042844;28;20026;-53
2021/09/08 08:01:59;;;;;;;15.55;9.88;;;19.80;99.90;;;;;;5040849;28;20033;-50
2021/09/08 08:04:24;;;;;;;11.43;9.00;;;19.90;99.90;;;;;;5037870;28;20083;-51
2021/09/08 08:06:50;;;;;;;10.55;9.02;;;20.10;99.90;;;;;;5046302;28;20455;-52
2021/09/08 08:09:15;;;;;;;12.57;8.82;;;20.20;99.90;;;;;;5041806;28;20026;-51
2021/09/08 08:11:41;;;;;;;10.52;8.52;;;20.20;99.90;;;;;;5046971;28;20079;-52
2021/09/08 08:14:06;;;;;;;10.98;8.70;;;20.20;99.90;;;;;;5043269;28;20029;-51
2021/09/08 08:16:32;;;;;;;11.20;8.40;;;20.20;99.90;;;;;;5028224;28;20025;-52
2021/09/08 08:18:58;;;;;;;10.63;7.18;;;20.20;99.90;;;;;;5044381;28;20025;-50
2021/09/08 08:21:23;;;;;;;13.63;8.13;;;20.30;99.90;;;;;;5023838;28;20029;-51
2021/09/08 08:23:49;;;;;;;8.23;7.35;;;20.30;99.90;;;;;;5041055;28;20020;-51
2021/09/08 08:26:18;;;;;;;10.90;8.82;;;20.30;99.90;;;;;;5049393;28;20112;-52
2021/09/08 08:28:43;;;;;;;10.85;7.93;;;20.40;99.90;;;;;;5063742;22;20033;-53
2021/09/08 08:31:09;;;;;;;9.48;7.75;;;20.40;99.90;;;;;;5049387;28;20027;-56
2021/09/08 08:33:35;;;;;;;9.93;8.20;;;20.50;99.90;;;;;;5060984;28;20036;-56
2021/09/08 08:36:00;;;;;;;9.63;7.90;;;20.50;99.90;;;;;;5061572;28;20033;-55
2021/09/08 08:38:26;;;;;;;9.45;8.02;;;20.70;99.90;;;;;;5064409;28;20025;-56
2021/09/08 08:40:52;;;;;;;8.80;7.45;;;20.70;99.90;;;;;;5046462;28;20032;-53
2021/09/08 08:43:20;;;;;;;9.75;7.78;;;20.90;99.90;;;;;;5061806;28;20016;-54
2021/09/08 08:45:46;;;;;;;8.85;7.45;;;21.00;99.90;;;;;;5046262;28;20033;-56
2021/09/08 08:48:11;;;;;;;9.82;7.22;;;21.10;99.90;;;;;;5062747;28;20502;-54
2021/09/08 08:50:37;;;;;;;8.93;7.78;;;21.10;99.90;;;;;;5064257;28;20092;-52
2021/09/08 08:53:03;;;;;;;8.63;7.13;;;21.20;99.90;;;;;;5045774;28;20031;-53
2021/09/08 08:55:28;;;;;;;8.93;7.05;;;21.30;99.90;;;;;;5046015;28;20111;-54
2021/09/08 08:57:54;;;;;;;10.02;6.53;;;21.30;99.90;;;;;;5064545;28;20048;-56
2021/09/08 09:00:21;;;;;;;9.25;6.97;;;21.30;99.90;;;;;;5062071;28;20455;-57
2021/09/08 09:02:49;;;;;;;8.27;6.72;;;21.40;99.90;;;;;;5064144;28;20021;-52
2021/09/08 09:05:30;;;;;;;7.72;6.88;;;21.40;99.90;;;;;;5062734;28;20102;-55
2021/09/08 09:07:56;;;;;;;10.90;7.18;;;21.50;99.90;;;;;;5063573;28;20024;-55
2021/09/08 09:10:23;;;;;;;9.75;7.85;;;21.50;99.90;;;;;;5060203;28;20075;-54
2021/09/08 09:12:48;;;;;;;7.80;6.80;;;21.60;99.90;;;;;;5047810;28;20107;-56
2021/09/08 09:15:16;;;;;;;10.25;7.00;;;21.60;99.90;;;;;;5060253;28;20112;-55
2021/09/08 09:17:43;;;;;;;7.40;6.50;;;21.60;99.90;;;;;;5065171;28;20031;-56
2021/09/08 09:20:17;;;;;;;7.03;6.32;;;21.70;99.90;;;;;;5061528;28;20033;-58
2021/09/08 09:22:47;;;;;;;7.25;6.03;;;21.80;99.90;;;;;;5048310;28;20514;-56
2021/09/08 09:25:16;;;;;;;8.27;6.45;;;21.80;99.90;;;;;;5060332;28;20569;-55
2021/09/08 09:27:44;;;;;;;6.93;5.88;;;21.90;99.90;;;;;;5055292;28;20036;-55
2021/09/08 09:30:12;;;;;;;7.70;6.90;;;21.90;99.90;;;;;;5066302;28;20126;-56
2021/09/08 09:32:41;;;;;;;6.88;5.95;;;22.00;99.90;;;;;;5060145;28;20359;-57
2021/09/08 09:35:09;;;;;;;8.77;6.13;;;22.20;99.90;;;;;;5066722;28;20024;-56
2021/09/08 09:37:41;;;;;;;6.95;6.25;;;22.40;99.90;;;;;;5059677;28;20407;-55
2021/09/08 09:40:07;;;;;;;6.57;5.90;;;22.50;99.90;;;;;;5061435;28;20055;-55
2021/09/08 09:42:32;;;;;;;8.93;6.32;;;22.60;99.90;;;;;;5063994;28;20056;-56
2021/09/08 09:45:04;;;;;;;7.07;6.38;;;22.70;99.90;;;;;;5059973;28;20029;-58
2021/09/08 09:47:34;;;;;;;9.48;6.25;;;22.70;99.90;;;;;;5065200;28;20029;-54
2021/09/08 09:50:00;;;;;;;7.25;6.13;;;22.80;99.90;;;;;;5060646;28;20025;-56
2021/09/08 09:52:26;;;;;;;7.43;6.63;;;22.80;99.90;;;;;;5066832;28;20109;-58
2021/09/08 09:54:52;;;;;;;9.07;6.53;;;22.80;99.90;;;;;;5059486;28;20095;-58
2021/09/08 09:57:18;;;;;;;6.82;5.15;;;22.80;99.90;;;;;;5062937;28;20047;-58
2021/09/08 09:59:43;;;;;;;6.85;5.75;;;22.90;99.90;;;;;;5062590;28;20052;-58
2021/09/08 10:02:09;;;;;;;9.10;6.20;;;22.90;99.90;;;;;;5061637;28;20050;-58
2021/09/08 10:04:35;;;;;;;8.15;6.22;;;22.90;99.90;;;;;;5064353;28;20103;-56
2021/09/08 10:07:04;;;;;;;8.13;6.32;;;23.00;99.90;;;;;;5060070;28;20029;-58
2021/09/08 10:09:32;;;;;;;6.65;5.78;;;22.90;99.90;;;;;;5065950;28;20021;-58
2021/09/08 10:12:00;;;;;;;7.65;6.07;;;23.00;99.90;;;;;;5059627;28;20021;-58
2021/09/08 10:14:29;;;;;;;7.20;6.50;;;23.00;99.90;;;;;;5062627;28;20021;-57
2021/09/08 10:17:01;;;;;;;6.40;5.68;;;23.00;99.90;;;;;;5060705;28;20029;-57
2021/09/08 10:19:28;;;;;;;7.00;5.85;;;23.00;99.90;;;;;;5049422;28;20030;-58
2021/09/08 10:22:04;;;;;;;9.80;6.00;;;23.10;99.90;;;;;;5061355;28;20029;-57
2021/09/08 10:24:29;;;;;;;7.13;5.63;;;23.00;99.90;;;;;;5049920;28;20035;-59
2021/09/08 10:26:55;;;;;;;8.07;6.10;;;23.00;99.90;;;;;;5044374;28;20396;-57
2021/09/08 10:29:29;;;;;;;8.32;5.95;;;22.90;99.90;;;;;;5061729;28;20117;-56
2021/09/08 10:31:57;;;;;;;7.03;5.55;;;22.90;99.90;;;;;;5060598;28;20037;-56
2021/09/08 10:34:23;;;;;;;7.13;6.10;;;22.80;99.90;;;;;;5050513;28;20062;-57
2021/09/08 10:36:50;;;;;;;6.82;5.07;;;22.80;99.90;;;;;;5062122;28;20602;-57
2021/09/08 10:39:20;;;;;;;6.30;4.85;;;22.80;99.90;;;;;;5041197;28;20044;-57
2021/09/08 10:41:48;;;;;;;5.95;5.35;;;22.80;99.90;;;;;;5056862;28;20025;-56
2021/09/08 10:44:16;;;;;;;5.78;4.97;;;22.80;99.90;;;;;;5062286;28;20428;-58
2021/09/08 10:46:53;;;;;;;6.65;5.15;;;22.80;99.90;;;;;;5063926;28;20386;-56
2021/09/08 10:49:36;;;;;;;6.57;4.93;;;22.90;99.90;;;;;;5058686;28;20025;-57
2021/09/08 10:52:09;;;;;;;5.95;5.20;;;22.80;99.90;;;;;;5066591;28;20021;-57
2021/09/08 10:54:54;;;;;;;8.10;5.35;;;22.90;99.90;;;;;;5040604;28;20037;-57
2021/09/08 10:57:41;;;;;;;6.28;5.68;;;22.90;99.90;;;;;;5044197;28;20024;-58
2021/09/08 11:00:09;;;;;;;6.47;5.88;;;22.90;99.90;;;;;;5058408;28;20527;-57
2021/09/08 11:02:42;;;;;;;8.05;6.50;;;22.90;99.90;;;;;;5062057;28;20064;-55
2021/09/08 11:05:11;;;;;;;5.95;5.43;;;22.90;99.90;;;;;;5042276;28;20025;-57
2021/09/08 11:07:41;;;;;;;8.05;5.57;;;22.90;99.90;;;;;;5061798;28;20021;-58
2021/09/08 11:10:08;;;;;;;5.95;5.18;;;22.90;99.90;;;;;;5061161;28;20059;-52
2021/09/08 11:12:52;;;;;;;7.38;6.38;;;22.90;99.90;;;;;;5044204;28;20025;-58
2021/09/08 11:15:28;;;;;;;7.53;5.75;;;22.90;99.90;;;;;;5059332;28;20040;-56
2021/09/08 11:17:53;;;;;;;8.13;6.72;;;23.00;99.90;;;;;;5043965;28;20056;-55
2021/09/08 11:20:19;;;;;;;7.43;6.65;;;23.00;99.90;;;;;;5042531;28;20534;-55
2021/09/08 11:23:02;;;;;;;6.95;6.25;;;23.10;99.90;;;;;;5062005;28;20434;-53
2021/09/08 11:25:33;;;;;;;9.60;6.38;;;23.10;99.90;;;;;;5060980;28;20020;-53
2021/09/08 11:27:59;;;;;;;7.57;6.22;;;23.00;99.90;;;;;;5061140;28;20479;-53
2021/09/08 11:30:33;;;;;;;7.93;6.68;;;23.00;99.90;;;;;;5057817;28;20143;-55
2021/09/08 11:33:05;;;;;;;6.30;5.70;;;23.10;99.90;;;;;;5064453;28;20021;-54
2021/09/08 11:35:52;;;;;;;8.45;6.15;;;23.10;99.90;;;;;;5057376;28;20020;-57
2021/09/08 11:38:28;;;;;;;6.55;5.95;;;23.10;99.90;;;;;;5061184;28;20031;-54
2021/09/08 11:40:57;;;;;;;7.07;5.43;;;23.20;99.90;;;;;;5062814;28;20051;-54
2021/09/08 11:43:39;;;;;;;6.82;6.22;;;23.20;99.90;;;;;;5053676;28;20025;-55
2021/09/08 11:46:17;;;;;;;6.38;5.57;;;23.30;99.90;;;;;;5063822;28;20494;-55
2021/09/08 11:48:44;;;;;;;7.28;6.40;;;23.30;99.90;;;;;;5065543;28;20028;-56
2021/09/08 11:51:12;;;;;;;7.03;5.93;;;23.30;99.90;;;;;;5065076;28;20470;-57
2021/09/08 11:53:38;;;;;;;8.55;5.50;;;23.20;99.90;;;;;;5065960;28;20138;-55
2021/09/08 11:56:16;;;;;;;5.85;5.35;;;23.20;99.90;;;;;;5063910;28;20024;-56
2021/09/08 11:58:44;;;;;;;7.65;5.57;;;23.20;99.90;;;;;;5066314;28;20458;-56
2021/09/08 12:01:13;;;;;;;6.35;5.75;;;23.20;99.90;;;;;;5063173;28;20038;-57
2021/09/08 12:03:44;;;;;;;6.80;5.75;;;23.30;99.90;;;;;;5067004;28;20025;-56
2021/09/08 12:06:13;;;;;;;6.75;5.82;;;23.30;99.90;;;;;;5062786;28;20027;-55
2021/09/08 12:08:47;;;;;;;6.63;5.75;;;23.30;99.90;;;;;;5061151;28;20067;-58
2021/09/08 12:11:48;;;;;;;6.90;6.10;;;23.40;99.90;;;;;;5062814;28;20406;-56
2021/09/08 12:14:25;;;;;;;6.05;5.45;;;23.40;99.90;;;;;;5062952;28;20517;-55
2021/09/08 12:17:14;;;;;;;7.10;5.78;;;23.50;99.90;;;;;;5063502;28;20063;-55
2021/09/08 12:19:45;;;;;;;11.38;5.70;;;23.50;99.90;;;;;;5055467;28;20390;-56
2021/09/08 12:22:19;;;;;;;5.80;5.22;;;23.50;99.10;;;;;;5064052;28;20020;-54
2021/09/08 12:24:57;;;;;;;8.38;5.82;;;23.40;99.90;;;;;;5064967;28;20402;-53
2021/09/08 12:27:28;;;;;;;5.15;4.65;;;23.40;99.90;;;;;;5064914;28;20021;-56
2021/09/08 12:29:59;;;;;;;5.43;4.65;;;23.50;99.90;;;;;;5064621;28;20034;-55
2021/09/08 12:32:58;;;;;;;5.32;4.38;;;23.60;99.90;;;;;;5055926;28;20048;-55
2021/09/08 12:35:53;;;;;;;6.38;4.93;;;23.60;99.00;;;;;;5057760;28;20049;-56
2021/09/08 12:38:26;;;;;;;5.85;5.00;;;23.60;98.60;;;;;;5064184;28;20032;-58
2021/09/08 12:41:06;;;;;;;6.18;4.50;;;23.70;98.50;;;;;;5063113;28;20677;-55
2021/09/08 12:43:32;;;;;;;4.63;4.13;;;23.70;99.00;;;;;;5053650;28;20032;-53